Aérodrome :
LOGIN :

S'inscrire | Disclaimer

   EN    FR    IT 

 










Légende :    VFR   VFR Marginal   IFR   IFR Intensif   IFR Très Intensif
Visi : 
Plafond : 
>= 8 km
>= 3000ft
5 à 8 km
1000 à 3000 ft
1500m à 5 km
500 à 1000 ft
800 à 1500m
200 à 500 ft
< 800m
< 200 ft
Symboles :   Orages  Brouillard  Fortes neiges  Fortes précipitations  Vent > 20 kt
SIGMETs :   Divers  Orages  Givrage  Turbulence  Onde Orograph.  Cendres Volcan.






- Altitude de l'aérodrome : 53 ft
- Code IATA : HAM


EDDH - Hamburg

DERNIER METAR :
  • 010520Z 24008KT 9999 FEW019 BKN026 02/M01 Q1021 NOSIG

METARs EXPIRÉS :
  • 010450Z 24006KT 210V270 9999 -RA FEW018 BKN022 02/M02 Q1021 NOSIG
  • 010420Z 23006KT 9999 FEW026 BKN032 01/M02 Q1022 NOSIG
  • 010350Z 22007KT 9999 FEW025 BKN029 01/M02 Q1022 NOSIG
  • 010320Z 22006KT 9999 BKN027 01/M02 Q1022 NOSIG
  • 010250Z 22008KT 9999 FEW028 BKN039 01/M03 Q1022 NOSIG

TAF TAF EDDH
Valide du 01 à 06h jusqu'au 02 à 12h UTC


010500Z 0106/0212 24005KT 9999 SCT025 BKN035
BECMG 0106/0108 26010KT
PROB30
TEMPO 0107/0109 BKN014
TEMPO 0200/0208 BKN012
BECMG 0208/0210 25015G25KT



MET'MAP, la Météo Aéronautique d'un coup d'oeil ! - Copyright ORBIFLY Décembre 2007 - Disclaimer

ORBIFLY MET'MAP TEAM :

Programmation & Développement : Alexandra Zaïnal
Sur une idée originale de : Baudouin d'Aumeries
Assistance à la programmation : Marc-Olivier Méhu
Soutien technique & logistique : Manuel Goepfert

Contact : metmap@orbifly.com




SOURCES & CREDITS :

   NOAA